sensor_id;sensor_type;location;lat;lon;timestamp;temperature;humidity
43414;DHT22;29013;49.676;8.606;2023-03-01T00:01:55;1.5;92.1
43414;DHT22;29013;49.676;8.606;2023-03-01T00:07:20;1.6;92.1
43414;DHT22;29013;49.676;8.606;2023-03-01T00:12:45;1.6;91.9
43414;DHT22;29013;49.676;8.606;2023-03-01T00:18:10;1.7;92.1
43414;DHT22;29013;49.676;8.606;2023-03-01T00:23:33;1.7;92.2
43414;DHT22;29013;49.676;8.606;2023-03-01T00:28:58;1.7;92.4
43414;DHT22;29013;49.676;8.606;2023-03-01T00:34:16;1.9;92.5
43414;DHT22;29013;49.676;8.606;2023-03-01T00:39:33;2.0;92.1
43414;DHT22;29013;49.676;8.606;2023-03-01T00:44:54;1.9;92.2
43414;DHT22;29013;49.676;8.606;2023-03-01T00:50:16;1.8;92.3
43414;DHT22;29013;49.676;8.606;2023-03-01T00:55:40;1.7;92.4
43414;DHT22;29013;49.676;8.606;2023-03-01T01:01:09;1.8;92.7
43414;DHT22;29013;49.676;8.606;2023-03-01T01:06:45;2.0;93.4
43414;DHT22;29013;49.676;8.606;2023-03-01T01:12:08;2.3;92.8
43414;DHT22;29013;49.676;8.606;2023-03-01T01:17:32;2.3;93.1
43414;DHT22;29013;49.676;8.606;2023-03-01T01:22:51;2.3;92.6
43414;DHT22;29013;49.676;8.606;2023-03-01T01:28:40;2.2;92.8
43414;DHT22;29013;49.676;8.606;2023-03-01T01:34:05;2.3;92.3
43414;DHT22;29013;49.676;8.606;2023-03-01T01:39:22;2.1;92.2
43414;DHT22;29013;49.676;8.606;2023-03-01T01:44:47;2.0;92.3
43414;DHT22;29013;49.676;8.606;2023-03-01T01:50:08;1.8;92.2
43414;DHT22;29013;49.676;8.606;2023-03-01T01:55:29;1.7;92.2
43414;DHT22;29013;49.676;8.606;2023-03-01T02:00:48;1.6;92.5
43414;DHT22;29013;49.676;8.606;2023-03-01T02:06:18;1.4;92.8
43414;DHT22;29013;49.676;8.606;2023-03-01T02:11:34;1.3;92.7
43414;DHT22;29013;49.676;8.606;2023-03-01T02:16:52;1.4;93.0
43414;DHT22;29013;49.676;8.606;2023-03-01T02:22:18;1.3;93.2
43414;DHT22;29013;49.676;8.606;2023-03-01T02:27:42;1.6;93.4
43414;DHT22;29013;49.676;8.606;2023-03-01T02:33:04;1.9;93.1
43414;DHT22;29013;49.676;8.606;2023-03-01T02:38:30;2.1;92.9
43414;DHT22;29013;49.676;8.606;2023-03-01T02:43:49;2.1;92.8
43414;DHT22;29013;49.676;8.606;2023-03-01T02:49:23;2.2;92.8
43414;DHT22;29013;49.676;8.606;2023-03-01T02:54:43;2.3;92.6
43414;DHT22;29013;49.676;8.606;2023-03-01T03:00:11;2.4;92.6
43414;DHT22;29013;49.676;8.606;2023-03-01T03:05:32;2.5;92.7
43414;DHT22;29013;49.676;8.606;2023-03-01T03:10:55;2.5;92.3
43414;DHT22;29013;49.676;8.606;2023-03-01T03:16:18;2.2;92.5
43414;DHT22;29013;49.676;8.606;2023-03-01T03:21:43;1.9;92.9
43414;DHT22;29013;49.676;8.606;2023-03-01T03:27:00;1.8;93.1
43414;DHT22;29013;49.676;8.606;2023-03-01T03:32:24;1.7;93.2
43414;DHT22;29013;49.676;8.606;2023-03-01T03:37:43;1.5;93.6
43414;DHT22;29013;49.676;8.606;2023-03-01T03:43:31;1.5;94.2
43414;DHT22;29013;49.676;8.606;2023-03-01T03:49:07;1.6;94.4
43414;DHT22;29013;49.676;8.606;2023-03-01T03:54:28;1.7;93.9
43414;DHT22;29013;49.676;8.606;2023-03-01T03:59:47;1.7;93.8
43414;DHT22;29013;49.676;8.606;2023-03-01T04:05:13;1.7;93.8
43414;DHT22;29013;49.676;8.606;2023-03-01T04:10:33;1.8;94.1
43414;DHT22;29013;49.676;8.606;2023-03-01T04:15:55;2.0;94.0
43414;DHT22;29013;49.676;8.606;2023-03-01T04:21:21;2.1;93.8
43414;DHT22;29013;49.676;8.606;2023-03-01T04:26:43;2.2;93.7
43414;DHT22;29013;49.676;8.606;2023-03-01T04:32:09;2.3;93.7
43414;DHT22;29013;49.676;8.606;2023-03-01T04:37:34;2.3;93.3
43414;DHT22;29013;49.676;8.606;2023-03-01T04:42:53;2.3;93.1
43414;DHT22;29013;49.676;8.606;2023-03-01T04:48:40;2.2;93.6
43414;DHT22;29013;49.676;8.606;2023-03-01T04:53:58;2.4;92.8
43414;DHT22;29013;49.676;8.606;2023-03-01T04:59:20;2.2;92.7
43414;DHT22;29013;49.676;8.606;2023-03-01T05:04:45;2.2;93.0
43414;DHT22;29013;49.676;8.606;2023-03-01T05:10:12;2.3;93.1
43414;DHT22;29013;49.676;8.606;2023-03-01T05:15:31;2.4;93.1
43414;DHT22;29013;49.676;8.606;2023-03-01T05:20:49;2.4;92.9
43414;DHT22;29013;49.676;8.606;2023-03-01T05:26:14;2.4;93.1
43414;DHT22;29013;49.676;8.606;2023-03-01T05:31:36;2.4;93.1
43414;DHT22;29013;49.676;8.606;2023-03-01T05:36:58;2.4;93.1
43414;DHT22;29013;49.676;8.606;2023-03-01T05:42:22;2.4;93.2
43414;DHT22;29013;49.676;8.606;2023-03-01T05:47:47;2.2;93.2
43414;DHT22;29013;49.676;8.606;2023-03-01T05:53:27;2.0;93.6
43414;DHT22;29013;49.676;8.606;2023-03-01T05:58:51;2.1;93.3
43414;DHT22;29013;49.676;8.606;2023-03-01T06:04:13;2.0;93.7
43414;DHT22;29013;49.676;8.606;2023-03-01T06:09:38;1.8;94.0
43414;DHT22;29013;49.676;8.606;2023-03-01T06:15:24;1.7;94.6
43414;DHT22;29013;49.676;8.606;2023-03-01T06:20:53;1.9;94.2
43414;DHT22;29013;49.676;8.606;2023-03-01T06:26:16;1.8;94.3
43414;DHT22;29013;49.676;8.606;2023-03-01T06:31:39;1.7;94.5
43414;DHT22;29013;49.676;8.606;2023-03-01T06:37:19;1.7;95.0
43414;DHT22;29013;49.676;8.606;2023-03-01T06:42:42;1.9;94.6
43414;DHT22;29013;49.676;8.606;2023-03-01T06:48:07;1.9;94.6
43414;DHT22;29013;49.676;8.606;2023-03-01T06:53:51;1.8;94.9
43414;DHT22;29013;49.676;8.606;2023-03-01T06:59:09;2.0;94.5
43414;DHT22;29013;49.676;8.606;2023-03-01T07:04:34;2.0;94.5
43414;DHT22;29013;49.676;8.606;2023-03-01T07:09:57;2.1;94.5
43414;DHT22;29013;49.676;8.606;2023-03-01T07:15:22;2.2;94.4
43414;DHT22;29013;49.676;8.606;2023-03-01T07:20:46;2.3;94.7
43414;DHT22;29013;49.676;8.606;2023-03-01T07:26:11;2.4;94.6
43414;DHT22;29013;49.676;8.606;2023-03-01T07:31:29;2.5;94.5
43414;DHT22;29013;49.676;8.606;2023-03-01T07:36:48;2.5;94.1
43414;DHT22;29013;49.676;8.606;2023-03-01T07:42:12;2.5;94.2
43414;DHT22;29013;49.676;8.606;2023-03-01T07:47:38;2.7;93.9
43414;DHT22;29013;49.676;8.606;2023-03-01T07:52:56;2.7;93.6
43414;DHT22;29013;49.676;8.606;2023-03-01T07:58:14;2.7;93.6
43414;DHT22;29013;49.676;8.606;2023-03-01T08:03:36;2.8;93.7
43414;DHT22;29013;49.676;8.606;2023-03-01T08:08:54;2.9;93.7
43414;DHT22;29013;49.676;8.606;2023-03-01T08:14:18;2.9;93.9
43414;DHT22;29013;49.676;8.606;2023-03-01T08:19:43;3.0;93.8
43414;DHT22;29013;49.676;8.606;2023-03-01T08:25:09;3.1;93.7
43414;DHT22;29013;49.676;8.606;2023-03-01T08:30:31;3.3;93.6
43414;DHT22;29013;49.676;8.606;2023-03-01T08:36:01;3.4;92.9
43414;DHT22;29013;49.676;8.606;2023-03-01T08:41:15;3.6;93.2
43414;DHT22;29013;49.676;8.606;2023-03-01T08:46:34;3.8;93.0
43414;DHT22;29013;49.676;8.606;2023-03-01T08:51:58;3.9;93.3
43414;DHT22;29013;49.676;8.606;2023-03-01T08:57:16;4.1;92.6
43414;DHT22;29013;49.676;8.606;2023-03-01T09:02:42;4.3;93.1
43414;DHT22;29013;49.676;8.606;2023-03-01T09:08:07;4.4;94.1
43414;DHT22;29013;49.676;8.606;2023-03-01T09:13:31;4.6;92.4
43414;DHT22;29013;49.676;8.606;2023-03-01T09:18:57;4.6;91.1
43414;DHT22;29013;49.676;8.606;2023-03-01T09:24:21;4.5;91.3
43414;DHT22;29013;49.676;8.606;2023-03-01T09:29:45;4.5;91.8
43414;DHT22;29013;49.676;8.606;2023-03-01T09:35:11;4.7;92.4
43414;DHT22;29013;49.676;8.606;2023-03-01T09:40:34;4.9;91.3
43414;DHT22;29013;49.676;8.606;2023-03-01T09:46:00;5.1;90.4
43414;DHT22;29013;49.676;8.606;2023-03-01T09:51:22;5.3;91.0
43414;DHT22;29013;49.676;8.606;2023-03-01T09:56:46;5.5;90.7
43414;DHT22;29013;49.676;8.606;2023-03-01T10:02:14;5.6;90.2
43414;DHT22;29013;49.676;8.606;2023-03-01T10:07:38;5.5;89.7
43414;DHT22;29013;49.676;8.606;2023-03-01T10:13:00;5.4;89.3
43414;DHT22;29013;49.676;8.606;2023-03-01T10:18:26;5.5;89.4
43414;DHT22;29013;49.676;8.606;2023-03-01T10:23:49;5.6;89.0
43414;DHT22;29013;49.676;8.606;2023-03-01T10:29:13;5.8;89.3
43414;DHT22;29013;49.676;8.606;2023-03-01T10:34:35;6.0;88.1
43414;DHT22;29013;49.676;8.606;2023-03-01T10:40:13;6.1;88.7
43414;DHT22;29013;49.676;8.606;2023-03-01T10:45:37;6.5;89.0
43414;DHT22;29013;49.676;8.606;2023-03-01T10:51:07;6.6;85.9
43414;DHT22;29013;49.676;8.606;2023-03-01T10:56:51;6.8;85.2
43414;DHT22;29013;49.676;8.606;2023-03-01T11:02:22;6.9;84.8
43414;DHT22;29013;49.676;8.606;2023-03-01T11:07:42;7.0;83.3
43414;DHT22;29013;49.676;8.606;2023-03-01T11:13:21;7.0;85.1
43414;DHT22;29013;49.676;8.606;2023-03-01T11:18:44;7.2;84.1
43414;DHT22;29013;49.676;8.606;2023-03-01T11:24:11;7.2;83.5
43414;DHT22;29013;49.676;8.606;2023-03-01T11:29:36;7.3;83.4
43414;DHT22;29013;49.676;8.606;2023-03-01T11:35:57;7.3;83.8
43414;DHT22;29013;49.676;8.606;2023-03-01T11:41:20;7.7;82.0
43414;DHT22;29013;49.676;8.606;2023-03-01T11:47:14;7.6;82.5
43414;DHT22;29013;49.676;8.606;2023-03-01T11:52:36;7.8;81.0
43414;DHT22;29013;49.676;8.606;2023-03-01T12:03:47;8.0;82.6
43414;DHT22;29013;49.676;8.606;2023-03-01T12:09:17;8.1;81.2
43414;DHT22;29013;49.676;8.606;2023-03-01T12:14:46;8.1;81.4
43414;DHT22;29013;49.676;8.606;2023-03-01T12:20:17;8.3;79.4
43414;DHT22;29013;49.676;8.606;2023-03-01T12:25:36;8.4;78.0
43414;DHT22;29013;49.676;8.606;2023-03-01T12:31:16;8.4;80.0
43414;DHT22;29013;49.676;8.606;2023-03-01T12:36:57;8.5;79.5
43414;DHT22;29013;49.676;8.606;2023-03-01T12:42:19;8.6;79.2
43414;DHT22;29013;49.676;8.606;2023-03-01T12:47:45;8.7;77.0
43414;DHT22;29013;49.676;8.606;2023-03-01T12:53:02;8.8;77.0
43414;DHT22;29013;49.676;8.606;2023-03-01T12:58:29;8.8;77.1
43414;DHT22;29013;49.676;8.606;2023-03-01T13:03:58;8.8;79.6
43414;DHT22;29013;49.676;8.606;2023-03-01T13:09:25;9.0;79.1
43414;DHT22;29013;49.676;8.606;2023-03-01T13:14:48;9.0;76.7
43414;DHT22;29013;49.676;8.606;2023-03-01T13:20:45;9.0;77.3
43414;DHT22;29013;49.676;8.606;2023-03-01T13:26:13;9.3;77.2
43414;DHT22;29013;49.676;8.606;2023-03-01T13:32:01;9.3;76.5
43414;DHT22;29013;49.676;8.606;2023-03-01T13:37:26;9.3;78.0
43414;DHT22;29013;49.676;8.606;2023-03-01T13:42:45;9.2;75.9
43414;DHT22;29013;49.676;8.606;2023-03-01T13:48:08;9.2;79.0
43414;DHT22;29013;49.676;8.606;2023-03-01T13:53:31;9.3;75.1
43414;DHT22;29013;49.676;8.606;2023-03-01T13:58:53;9.3;76.0
43414;DHT22;29013;49.676;8.606;2023-03-01T14:04:23;9.4;75.5
43414;DHT22;29013;49.676;8.606;2023-03-01T14:09:41;9.5;75.3
43414;DHT22;29013;49.676;8.606;2023-03-01T14:15:05;9.5;73.0
43414;DHT22;29013;49.676;8.606;2023-03-01T14:20:29;9.6;73.4
43414;DHT22;29013;49.676;8.606;2023-03-01T14:25:54;9.7;73.1
43414;DHT22;29013;49.676;8.606;2023-03-01T14:31:34;9.7;72.4
43414;DHT22;29013;49.676;8.606;2023-03-01T14:36:58;9.7;74.8
43414;DHT22;29013;49.676;8.606;2023-03-01T14:42:24;9.7;72.0
43414;DHT22;29013;49.676;8.606;2023-03-01T14:48:00;9.6;75.0
43414;DHT22;29013;49.676;8.606;2023-03-01T14:53:38;9.6;75.4
43414;DHT22;29013;49.676;8.606;2023-03-01T14:58:58;9.8;72.3
43414;DHT22;29013;49.676;8.606;2023-03-01T15:05:05;9.7;73.0
43414;DHT22;29013;49.676;8.606;2023-03-01T15:10:30;9.9;71.8
43414;DHT22;29013;49.676;8.606;2023-03-01T15:16:16;9.8;72.1
43414;DHT22;29013;49.676;8.606;2023-03-01T15:21:34;9.9;70.7
43414;DHT22;29013;49.676;8.606;2023-03-01T15:27:01;9.9;70.8
43414;DHT22;29013;49.676;8.606;2023-03-01T15:32:28;9.8;70.6
43414;DHT22;29013;49.676;8.606;2023-03-01T15:37:49;9.8;71.2
43414;DHT22;29013;49.676;8.606;2023-03-01T15:43:36;9.7;71.3
43414;DHT22;29013;49.676;8.606;2023-03-01T15:48:32;9.8;71.5
43414;DHT22;29013;49.676;8.606;2023-03-01T15:53:58;9.7;72.0
43414;DHT22;29013;49.676;8.606;2023-03-01T15:59:18;9.6;71.9
43414;DHT22;29013;49.676;8.606;2023-03-01T16:04:43;9.5;73.1
43414;DHT22;29013;49.676;8.606;2023-03-01T16:10:10;9.4;72.4
43414;DHT22;29013;49.676;8.606;2023-03-01T16:15:35;9.3;75.1
43414;DHT22;29013;49.676;8.606;2023-03-01T16:21:01;9.2;72.4
43414;DHT22;29013;49.676;8.606;2023-03-01T16:26:26;9.1;73.1
43414;DHT22;29013;49.676;8.606;2023-03-01T16:31:45;9.1;74.2
43414;DHT22;29013;49.676;8.606;2023-03-01T16:37:26;8.9;74.4
43414;DHT22;29013;49.676;8.606;2023-03-01T16:42:50;8.9;74.2
43414;DHT22;29013;49.676;8.606;2023-03-01T16:48:09;8.6;75.0
43414;DHT22;29013;49.676;8.606;2023-03-01T16:53:34;8.6;75.1
43414;DHT22;29013;49.676;8.606;2023-03-01T16:58:58;8.4;75.3
43414;DHT22;29013;49.676;8.606;2023-03-01T17:04:20;8.2;75.4
43414;DHT22;29013;49.676;8.606;2023-03-01T17:09:45;8.0;77.4
43414;DHT22;29013;49.676;8.606;2023-03-01T17:15:12;7.8;77.9
43414;DHT22;29013;49.676;8.606;2023-03-01T17:20:36;7.6;77.6
43414;DHT22;29013;49.676;8.606;2023-03-01T17:25:57;7.4;79.0
43414;DHT22;29013;49.676;8.606;2023-03-01T17:31:20;7.2;78.8
43414;DHT22;29013;49.676;8.606;2023-03-01T17:36:45;7.1;78.9
43414;DHT22;29013;49.676;8.606;2023-03-01T17:42:07;7.2;78.7
43414;DHT22;29013;49.676;8.606;2023-03-01T17:47:26;7.1;79.3
43414;DHT22;29013;49.676;8.606;2023-03-01T17:52:50;7.1;80.3
43414;DHT22;29013;49.676;8.606;2023-03-01T17:58:16;7.1;79.6
43414;DHT22;29013;49.676;8.606;2023-03-01T18:03:37;7.0;79.9
43414;DHT22;29013;49.676;8.606;2023-03-01T18:09:01;7.0;83.1
43414;DHT22;29013;49.676;8.606;2023-03-01T18:14:26;6.9;80.3
43414;DHT22;29013;49.676;8.606;2023-03-01T18:19:44;6.8;80.8
43414;DHT22;29013;49.676;8.606;2023-03-01T18:25:08;6.7;81.3
43414;DHT22;29013;49.676;8.606;2023-03-01T18:30:31;6.6;81.2
43414;DHT22;29013;49.676;8.606;2023-03-01T18:35:52;6.4;81.0
43414;DHT22;29013;49.676;8.606;2023-03-01T18:41:11;6.0;82.0
43414;DHT22;29013;49.676;8.606;2023-03-01T18:46:58;6.0;84.4
43414;DHT22;29013;49.676;8.606;2023-03-01T18:52:22;6.2;82.4
43414;DHT22;29013;49.676;8.606;2023-03-01T18:57:41;6.2;82.1
43414;DHT22;29013;49.676;8.606;2023-03-01T19:03:03;6.1;82.6
43414;DHT22;29013;49.676;8.606;2023-03-01T19:08:25;6.1;82.9
43414;DHT22;29013;49.676;8.606;2023-03-01T19:13:44;5.9;83.1
43414;DHT22;29013;49.676;8.606;2023-03-01T19:19:04;5.7;83.6
43414;DHT22;29013;49.676;8.606;2023-03-01T19:24:27;5.6;83.9
43414;DHT22;29013;49.676;8.606;2023-03-01T19:29:52;5.6;84.4
43414;DHT22;29013;49.676;8.606;2023-03-01T19:35:17;5.4;84.8
43414;DHT22;29013;49.676;8.606;2023-03-01T19:40:39;5.4;85.2
43414;DHT22;29013;49.676;8.606;2023-03-01T19:46:02;5.4;85.0
43414;DHT22;29013;49.676;8.606;2023-03-01T19:51:25;5.4;85.2
43414;DHT22;29013;49.676;8.606;2023-03-01T19:56:44;5.4;85.2
43414;DHT22;29013;49.676;8.606;2023-03-01T20:02:10;5.3;86.0
43414;DHT22;29013;49.676;8.606;2023-03-01T20:07:58;5.1;86.8
43414;DHT22;29013;49.676;8.606;2023-03-01T20:13:19;5.3;86.0
43414;DHT22;29013;49.676;8.606;2023-03-01T20:18:44;5.3;86.2
43414;DHT22;29013;49.676;8.606;2023-03-01T20:24:03;5.2;86.3
43414;DHT22;29013;49.676;8.606;2023-03-01T20:29:28;5.1;86.3
43414;DHT22;29013;49.676;8.606;2023-03-01T20:34:50;5.1;86.8
43414;DHT22;29013;49.676;8.606;2023-03-01T20:40:15;4.9;86.3
43414;DHT22;29013;49.676;8.606;2023-03-01T20:45:36;4.6;86.9
43414;DHT22;29013;49.676;8.606;2023-03-01T20:50:56;4.4;88.0
43414;DHT22;29013;49.676;8.606;2023-03-01T20:57:05;4.4;89.1
43414;DHT22;29013;49.676;8.606;2023-03-01T21:02:26;4.5;88.3
43414;DHT22;29013;49.676;8.606;2023-03-01T21:08:07;4.4;89.5
43414;DHT22;29013;49.676;8.606;2023-03-01T21:13:31;4.3;88.5
43414;DHT22;29013;49.676;8.606;2023-03-01T21:18:54;4.3;89.1
43414;DHT22;29013;49.676;8.606;2023-03-01T21:25:01;4.4;90.1
43414;DHT22;29013;49.676;8.606;2023-03-01T21:30:24;4.6;88.8
43414;DHT22;29013;49.676;8.606;2023-03-01T21:35:50;4.6;89.2
43414;DHT22;29013;49.676;8.606;2023-03-01T21:41:15;4.6;89.3
43414;DHT22;29013;49.676;8.606;2023-03-01T21:46:39;4.6;89.7
43414;DHT22;29013;49.676;8.606;2023-03-01T21:52:05;4.5;90.0
43414;DHT22;29013;49.676;8.606;2023-03-01T21:57:27;4.5;89.9
43414;DHT22;29013;49.676;8.606;2023-03-01T22:02:51;4.4;90.1
43414;DHT22;29013;49.676;8.606;2023-03-01T22:08:13;4.4;90.5
43414;DHT22;29013;49.676;8.606;2023-03-01T22:13:37;4.3;90.5
43414;DHT22;29013;49.676;8.606;2023-03-01T22:19:02;4.3;90.6
43414;DHT22;29013;49.676;8.606;2023-03-01T22:24:40;4.3;90.8
43414;DHT22;29013;49.676;8.606;2023-03-01T22:30:02;4.4;90.2
43414;DHT22;29013;49.676;8.606;2023-03-01T22:35:26;4.4;90.3
43414;DHT22;29013;49.676;8.606;2023-03-01T22:40:58;4.4;90.4
43414;DHT22;29013;49.676;8.606;2023-03-01T22:46:19;4.4;90.3
43414;DHT22;29013;49.676;8.606;2023-03-01T22:51:42;4.3;90.4
43414;DHT22;29013;49.676;8.606;2023-03-01T22:57:02;4.4;90.5
43414;DHT22;29013;49.676;8.606;2023-03-01T23:02:20;4.3;90.6
43414;DHT22;29013;49.676;8.606;2023-03-01T23:07:45;4.1;90.7
43414;DHT22;29013;49.676;8.606;2023-03-01T23:13:10;4.1;90.9
43414;DHT22;29013;49.676;8.606;2023-03-01T23:18:36;4.2;91.0
43414;DHT22;29013;49.676;8.606;2023-03-01T23:23:59;4.3;91.0
43414;DHT22;29013;49.676;8.606;2023-03-01T23:29:22;4.3;90.9
43414;DHT22;29013;49.676;8.606;2023-03-01T23:35:11;4.3;91.9
43414;DHT22;29013;49.676;8.606;2023-03-01T23:40:38;4.5;91.1
43414;DHT22;29013;49.676;8.606;2023-03-01T23:46:02;4.4;90.7
43414;DHT22;29013;49.676;8.606;2023-03-01T23:51:25;4.3;90.6
43414;DHT22;29013;49.676;8.606;2023-03-01T23:56:46;4.0;90.8
